KEBS

Details ICAO KEBS
Name WEBSTER CITY MUNI
Region United States
Timezone America/Chicago (UTC-6.0)
Plans Departing 2
Arriving 5
Stats Elevation 1,121 ft / 342 m (AMSL)
Location 42.436794° -93.868713°
Runways 2
Magnetic Variation 0.933° E
Sunrise 2017-11-18 13:11:57 UTC / 2017-11-18 07:11:57 Local
Sunset 2017-11-18 22:52:24 UTC / 2017-11-18 16:52:24 Local
Advertisement - Login to hide

Runways

ID Width Length Bearing (true) Bearing (mag) Surface Threshold Offset Overrun Length
05 90 ft / 27 m 2,705 ft / 824 m 47.58° 46.65° Grass 0 ft / 0 m 0 ft / 0 m
14 75 ft / 23 m 4,007 ft / 1,221 m 144.08° 143.15° Concrete 0 ft / 0 m 0 ft / 0 m
23 90 ft / 27 m 2,705 ft / 824 m 227.58° 226.65° Grass 0 ft / 0 m 0 ft / 0 m
32 75 ft / 23 m 4,007 ft / 1,221 m 324.08° 323.15° Concrete 0 ft / 0 m 0 ft / 0 m

Map

Weather


0- 5 10 15 20 25 30 35+ Temperature / ° C

Clouds and Precipitation
Forecast for 2017-11-18 18:00 UTC. Updated 2 hours ago

Ground ~20,000 ft ~40,000 ft Winds

METAR

KEBS 181855Z AUTO 32020G28KT 10SM CLR 04/M01 A2984 RMK AO2

TAF

Not found

Frequencies

Recorded 127.82 MHz AWOS 3
Unicom 122.80 MHz CTAF/UNICOM
Warning: Do not use this data for real-world aviation or navigation. No guarantee of current accuracy is given.